sensor_id;sensor_type;location;lat;lon;timestamp;P1;durP1;ratioP1;P2;durP2;ratioP2
45905;SDS011;31619;49.008;12.106;2022-10-22T00:01:22;16.13;;;14.43;;
45905;SDS011;31619;49.008;12.106;2022-10-22T00:03:48;15.20;;;13.70;;
45905;SDS011;31619;49.008;12.106;2022-10-22T00:06:14;15.63;;;13.57;;
45905;SDS011;31619;49.008;12.106;2022-10-22T00:08:40;16.67;;;14.40;;
45905;SDS011;31619;49.008;12.106;2022-10-22T00:11:09;16.33;;;14.63;;
45905;SDS011;31619;49.008;12.106;2022-10-22T00:13:37;15.38;;;13.60;;
45905;SDS011;31619;49.008;12.106;2022-10-22T00:16:03;15.48;;;13.77;;
45905;SDS011;31619;49.008;12.106;2022-10-22T00:18:29;16.95;;;14.55;;
45905;SDS011;31619;49.008;12.106;2022-10-22T00:20:55;18.30;;;14.25;;
45905;SDS011;31619;49.008;12.106;2022-10-22T00:23:20;13.82;;;12.52;;
45905;SDS011;31619;49.008;12.106;2022-10-22T00:25:46;16.92;;;14.15;;
45905;SDS011;31619;49.008;12.106;2022-10-22T00:28:12;17.50;;;15.50;;
45905;SDS011;31619;49.008;12.106;2022-10-22T00:30:38;16.52;;;14.82;;
45905;SDS011;31619;49.008;12.106;2022-10-22T00:33:04;17.35;;;15.43;;
45905;SDS011;31619;49.008;12.106;2022-10-22T00:35:31;17.48;;;14.35;;
45905;SDS011;31619;49.008;12.106;2022-10-22T00:37:56;20.17;;;15.95;;
45905;SDS011;31619;49.008;12.106;2022-10-22T00:40:22;19.88;;;15.20;;
45905;SDS011;31619;49.008;12.106;2022-10-22T00:42:48;17.27;;;15.48;;
45905;SDS011;31619;49.008;12.106;2022-10-22T00:45:15;16.92;;;15.13;;
45905;SDS011;31619;49.008;12.106;2022-10-22T00:47:46;18.65;;;16.17;;
45905;SDS011;31619;49.008;12.106;2022-10-22T00:50:17;18.38;;;16.27;;
45905;SDS011;31619;49.008;12.106;2022-10-22T00:52:56;18.65;;;15.70;;
45905;SDS011;31619;49.008;12.106;2022-10-22T00:55:23;19.05;;;16.13;;
45905;SDS011;31619;49.008;12.106;2022-10-22T00:57:50;18.27;;;16.20;;
45905;SDS011;31619;49.008;12.106;2022-10-22T01:00:18;18.77;;;16.75;;
45905;SDS011;31619;49.008;12.106;2022-10-22T01:02:44;17.80;;;15.93;;
45905;SDS011;31619;49.008;12.106;2022-10-22T01:05:11;19.77;;;17.48;;
45905;SDS011;31619;49.008;12.106;2022-10-22T01:07:40;19.50;;;17.25;;
45905;SDS011;31619;49.008;12.106;2022-10-22T01:10:25;17.70;;;15.88;;
45905;SDS011;31619;49.008;12.106;2022-10-22T01:13:12;19.02;;;17.02;;
45905;SDS011;31619;49.008;12.106;2022-10-22T01:16:16;21.17;;;16.65;;
45905;SDS011;31619;49.008;12.106;2022-10-22T01:19:18;17.90;;;15.93;;
45905;SDS011;31619;49.008;12.106;2022-10-22T01:22:11;25.30;;;17.95;;
45905;SDS011;31619;49.008;12.106;2022-10-22T01:27:34;21.15;;;17.85;;
45905;SDS011;31619;49.008;12.106;2022-10-22T01:30:07;21.65;;;17.05;;
45905;SDS011;31619;49.008;12.106;2022-10-22T01:32:44;17.90;;;16.00;;
45905;SDS011;31619;49.008;12.106;2022-10-22T01:35:13;19.52;;;17.00;;
45905;SDS011;31619;49.008;12.106;2022-10-22T01:37:48;22.50;;;16.80;;
45905;SDS011;31619;49.008;12.106;2022-10-22T01:40:19;21.52;;;18.38;;
45905;SDS011;31619;49.008;12.106;2022-10-22T01:43:20;21.42;;;18.63;;
45905;SDS011;31619;49.008;12.106;2022-10-22T01:45:53;19.35;;;17.30;;
45905;SDS011;31619;49.008;12.106;2022-10-22T01:59:59;24.25;;;18.70;;
45905;SDS011;31619;49.008;12.106;2022-10-22T02:07:46;23.40;;;19.15;;
45905;SDS011;31619;49.008;12.106;2022-10-22T02:10:18;21.17;;;18.85;;
45905;SDS011;31619;49.008;12.106;2022-10-22T02:12:46;24.38;;;20.58;;
45905;SDS011;31619;49.008;12.106;2022-10-22T02:15:14;21.70;;;18.77;;
45905;SDS011;31619;49.008;12.106;2022-10-22T02:17:44;21.50;;;18.40;;
45905;SDS011;31619;49.008;12.106;2022-10-22T02:20:26;22.52;;;18.65;;
45905;SDS011;31619;49.008;12.106;2022-10-22T02:22:55;23.52;;;19.05;;
45905;SDS011;31619;49.008;12.106;2022-10-22T02:25:23;21.92;;;19.40;;
45905;SDS011;31619;49.008;12.106;2022-10-22T02:27:57;22.35;;;19.52;;
45905;SDS011;31619;49.008;12.106;2022-10-22T02:30:32;25.75;;;20.15;;
45905;SDS011;31619;49.008;12.106;2022-10-22T02:33:04;24.10;;;20.38;;
45905;SDS011;31619;49.008;12.106;2022-10-22T02:35:32;22.70;;;20.33;;
45905;SDS011;31619;49.008;12.106;2022-10-22T02:37:59;24.58;;;20.48;;
45905;SDS011;31619;49.008;12.106;2022-10-22T02:40:25;26.58;;;20.50;;
45905;SDS011;31619;49.008;12.106;2022-10-22T02:42:54;26.40;;;21.23;;
45905;SDS011;31619;49.008;12.106;2022-10-22T02:45:20;22.27;;;19.88;;
45905;SDS011;31619;49.008;12.106;2022-10-22T02:47:48;24.60;;;21.05;;
45905;SDS011;31619;49.008;12.106;2022-10-22T02:50:14;25.25;;;21.27;;
45905;SDS011;31619;49.008;12.106;2022-10-22T02:52:40;23.48;;;20.77;;
45905;SDS011;31619;49.008;12.106;2022-10-22T02:55:06;22.17;;;19.80;;
45905;SDS011;31619;49.008;12.106;2022-10-22T02:57:33;23.98;;;19.58;;
45905;SDS011;31619;49.008;12.106;2022-10-22T02:59:59;23.83;;;20.40;;
45905;SDS011;31619;49.008;12.106;2022-10-22T03:02:24;22.73;;;19.65;;
45905;SDS011;31619;49.008;12.106;2022-10-22T03:04:50;20.90;;;18.70;;
45905;SDS011;31619;49.008;12.106;2022-10-22T03:07:16;22.52;;;19.15;;
45905;SDS011;31619;49.008;12.106;2022-10-22T03:09:44;22.20;;;19.50;;
45905;SDS011;31619;49.008;12.106;2022-10-22T03:12:10;23.80;;;20.52;;
45905;SDS011;31619;49.008;12.106;2022-10-22T03:14:36;22.50;;;19.20;;
45905;SDS011;31619;49.008;12.106;2022-10-22T03:17:01;27.27;;;21.35;;
45905;SDS011;31619;49.008;12.106;2022-10-22T03:19:27;23.38;;;20.85;;
45905;SDS011;31619;49.008;12.106;2022-10-22T03:21:58;28.67;;;21.85;;
45905;SDS011;31619;49.008;12.106;2022-10-22T03:24:35;26.17;;;21.75;;
45905;SDS011;31619;49.008;12.106;2022-10-22T03:27:03;24.05;;;20.25;;
45905;SDS011;31619;49.008;12.106;2022-10-22T03:29:29;25.35;;;20.63;;
45905;SDS011;31619;49.008;12.106;2022-10-22T03:32:01;28.13;;;22.02;;
45905;SDS011;31619;49.008;12.106;2022-10-22T03:34:26;25.88;;;21.02;;
45905;SDS011;31619;49.008;12.106;2022-10-22T03:36:52;26.55;;;20.88;;
45905;SDS011;31619;49.008;12.106;2022-10-22T03:39:18;28.48;;;20.75;;
45905;SDS011;31619;49.008;12.106;2022-10-22T03:41:46;25.48;;;20.98;;
45905;SDS011;31619;49.008;12.106;2022-10-22T03:46:52;26.77;;;21.17;;
45905;SDS011;31619;49.008;12.106;2022-10-22T03:49:18;26.48;;;21.38;;
45905;SDS011;31619;49.008;12.106;2022-10-22T03:51:43;26.45;;;22.23;;
45905;SDS011;31619;49.008;12.106;2022-10-22T03:54:09;29.08;;;22.52;;
45905;SDS011;31619;49.008;12.106;2022-10-22T03:56:35;24.17;;;20.58;;
45905;SDS011;31619;49.008;12.106;2022-10-22T03:59:00;29.13;;;22.15;;
45905;SDS011;31619;49.008;12.106;2022-10-22T04:01:27;27.42;;;22.08;;
45905;SDS011;31619;49.008;12.106;2022-10-22T04:03:55;23.88;;;20.08;;
45905;SDS011;31619;49.008;12.106;2022-10-22T04:06:22;27.60;;;21.45;;
45905;SDS011;31619;49.008;12.106;2022-10-22T04:08:47;24.23;;;20.92;;
45905;SDS011;31619;49.008;12.106;2022-10-22T04:11:13;24.58;;;20.83;;
45905;SDS011;31619;49.008;12.106;2022-10-22T04:13:40;26.42;;;19.80;;
45905;SDS011;31619;49.008;12.106;2022-10-22T04:16:13;23.65;;;21.00;;
45905;SDS011;31619;49.008;12.106;2022-10-22T04:18:41;25.02;;;19.83;;
45905;SDS011;31619;49.008;12.106;2022-10-22T04:21:08;22.25;;;19.85;;
45905;SDS011;31619;49.008;12.106;2022-10-22T04:23:35;22.58;;;19.77;;
45905;SDS011;31619;49.008;12.106;2022-10-22T04:26:02;21.98;;;19.67;;
45905;SDS011;31619;49.008;12.106;2022-10-22T04:28:30;22.80;;;19.25;;
45905;SDS011;31619;49.008;12.106;2022-10-22T04:30:55;20.85;;;17.85;;
45905;SDS011;31619;49.008;12.106;2022-10-22T04:33:21;25.00;;;19.65;;
45905;SDS011;31619;49.008;12.106;2022-10-22T04:35:47;26.13;;;20.63;;
45905;SDS011;31619;49.008;12.106;2022-10-22T04:38:13;21.27;;;19.00;;
45905;SDS011;31619;49.008;12.106;2022-10-22T04:40:39;23.55;;;18.85;;
45905;SDS011;31619;49.008;12.106;2022-10-22T04:43:05;22.42;;;19.95;;
45905;SDS011;31619;49.008;12.106;2022-10-22T04:45:34;23.58;;;18.70;;
45905;SDS011;31619;49.008;12.106;2022-10-22T04:48:00;20.27;;;18.17;;
45905;SDS011;31619;49.008;12.106;2022-10-22T04:50:25;22.80;;;19.95;;
45905;SDS011;31619;49.008;12.106;2022-10-22T04:52:51;22.45;;;19.13;;
45905;SDS011;31619;49.008;12.106;2022-10-22T04:55:17;24.00;;;20.05;;
45905;SDS011;31619;49.008;12.106;2022-10-22T04:57:43;24.20;;;20.38;;
45905;SDS011;31619;49.008;12.106;2022-10-22T05:00:09;23.15;;;19.48;;
45905;SDS011;31619;49.008;12.106;2022-10-22T05:02:35;22.15;;;19.77;;
45905;SDS011;31619;49.008;12.106;2022-10-22T05:05:00;21.73;;;18.85;;
45905;SDS011;31619;49.008;12.106;2022-10-22T05:07:26;21.20;;;19.00;;
45905;SDS011;31619;49.008;12.106;2022-10-22T05:09:52;22.95;;;18.80;;
45905;SDS011;31619;49.008;12.106;2022-10-22T05:12:18;24.63;;;20.88;;
45905;SDS011;31619;49.008;12.106;2022-10-22T05:14:43;25.75;;;19.50;;
45905;SDS011;31619;49.008;12.106;2022-10-22T05:17:09;25.55;;;18.85;;
45905;SDS011;31619;49.008;12.106;2022-10-22T05:19:35;23.20;;;19.90;;
45905;SDS011;31619;49.008;12.106;2022-10-22T05:22:01;26.65;;;20.52;;
45905;SDS011;31619;49.008;12.106;2022-10-22T05:24:28;22.08;;;19.52;;
45905;SDS011;31619;49.008;12.106;2022-10-22T05:26:55;21.60;;;19.20;;
45905;SDS011;31619;49.008;12.106;2022-10-22T05:29:22;24.13;;;20.65;;
45905;SDS011;31619;49.008;12.106;2022-10-22T05:31:48;26.13;;;20.42;;
45905;SDS011;31619;49.008;12.106;2022-10-22T05:34:14;26.25;;;19.73;;
45905;SDS011;31619;49.008;12.106;2022-10-22T05:36:41;22.50;;;17.60;;
45905;SDS011;31619;49.008;12.106;2022-10-22T05:39:07;21.92;;;19.17;;
45905;SDS011;31619;49.008;12.106;2022-10-22T05:41:33;24.27;;;19.65;;
45905;SDS011;31619;49.008;12.106;2022-10-22T05:44:02;21.73;;;19.38;;
45905;SDS011;31619;49.008;12.106;2022-10-22T05:46:29;21.20;;;18.48;;
45905;SDS011;31619;49.008;12.106;2022-10-22T05:48:59;21.23;;;17.38;;
45905;SDS011;31619;49.008;12.106;2022-10-22T05:51:27;27.17;;;20.67;;
45905;SDS011;31619;49.008;12.106;2022-10-22T05:53:55;23.48;;;17.88;;
45905;SDS011;31619;49.008;12.106;2022-10-22T05:56:23;23.38;;;18.83;;
45905;SDS011;31619;49.008;12.106;2022-10-22T05:58:49;26.52;;;18.80;;
45905;SDS011;31619;49.008;12.106;2022-10-22T06:01:19;22.33;;;19.13;;
45905;SDS011;31619;49.008;12.106;2022-10-22T06:03:52;22.30;;;19.40;;
45905;SDS011;31619;49.008;12.106;2022-10-22T06:11:42;20.90;;;18.50;;
45905;SDS011;31619;49.008;12.106;2022-10-22T06:14:09;21.52;;;18.63;;
45905;SDS011;31619;49.008;12.106;2022-10-22T06:16:35;19.50;;;17.27;;
45905;SDS011;31619;49.008;12.106;2022-10-22T06:19:01;22.80;;;19.33;;
45905;SDS011;31619;49.008;12.106;2022-10-22T06:21:27;23.45;;;18.88;;
45905;SDS011;31619;49.008;12.106;2022-10-22T06:23:56;23.67;;;19.23;;
45905;SDS011;31619;49.008;12.106;2022-10-22T06:26:25;20.50;;;18.33;;
45905;SDS011;31619;49.008;12.106;2022-10-22T06:28:51;20.55;;;18.48;;
45905;SDS011;31619;49.008;12.106;2022-10-22T06:31:20;22.58;;;19.13;;
45905;SDS011;31619;49.008;12.106;2022-10-22T06:33:46;21.63;;;17.63;;
45905;SDS011;31619;49.008;12.106;2022-10-22T06:36:13;21.90;;;18.90;;
45905;SDS011;31619;49.008;12.106;2022-10-22T06:38:40;22.50;;;18.25;;
45905;SDS011;31619;49.008;12.106;2022-10-22T06:41:10;23.88;;;19.85;;
45905;SDS011;31619;49.008;12.106;2022-10-22T06:43:38;26.17;;;18.92;;
45905;SDS011;31619;49.008;12.106;2022-10-22T06:46:06;23.90;;;20.33;;
45905;SDS011;31619;49.008;12.106;2022-10-22T06:48:34;23.67;;;19.42;;
45905;SDS011;31619;49.008;12.106;2022-10-22T06:51:06;24.58;;;19.13;;
45905;SDS011;31619;49.008;12.106;2022-10-22T06:53:34;22.88;;;20.05;;
45905;SDS011;31619;49.008;12.106;2022-10-22T06:56:19;22.48;;;20.02;;
45905;SDS011;31619;49.008;12.106;2022-10-22T06:58:50;28.88;;;20.38;;
45905;SDS011;31619;49.008;12.106;2022-10-22T07:01:18;21.85;;;18.08;;
45905;SDS011;31619;49.008;12.106;2022-10-22T07:03:46;20.88;;;18.70;;
45905;SDS011;31619;49.008;12.106;2022-10-22T07:06:14;20.25;;;18.15;;
45905;SDS011;31619;49.008;12.106;2022-10-22T07:08:41;17.55;;;15.32;;
45905;SDS011;31619;49.008;12.106;2022-10-22T07:11:11;21.05;;;18.70;;
45905;SDS011;31619;49.008;12.106;2022-10-22T07:13:39;22.33;;;18.65;;
45905;SDS011;31619;49.008;12.106;2022-10-22T07:16:05;21.05;;;18.58;;
45905;SDS011;31619;49.008;12.106;2022-10-22T07:18:32;20.38;;;17.33;;
45905;SDS011;31619;49.008;12.106;2022-10-22T07:20:59;19.95;;;17.85;;
45905;SDS011;31619;49.008;12.106;2022-10-22T07:23:25;19.27;;;17.38;;
45905;SDS011;31619;49.008;12.106;2022-10-22T07:25:51;12.32;;;11.13;;
45905;SDS011;31619;49.008;12.106;2022-10-22T07:28:17;18.02;;;15.98;;
45905;SDS011;31619;49.008;12.106;2022-10-22T07:30:43;15.30;;;13.73;;
45905;SDS011;31619;49.008;12.106;2022-10-22T07:33:09;13.55;;;12.35;;
45905;SDS011;31619;49.008;12.106;2022-10-22T07:35:36;13.25;;;11.73;;
45905;SDS011;31619;49.008;12.106;2022-10-22T07:38:03;14.82;;;12.25;;
45905;SDS011;31619;49.008;12.106;2022-10-22T07:40:30;9.60;;;7.30;;
45905;SDS011;31619;49.008;12.106;2022-10-22T07:42:56;9.35;;;8.43;;
45905;SDS011;31619;49.008;12.106;2022-10-22T07:45:22;7.70;;;5.97;;
45905;SDS011;31619;49.008;12.106;2022-10-22T07:47:48;5.13;;;4.63;;
45905;SDS011;31619;49.008;12.106;2022-10-22T07:50:14;5.30;;;4.90;;
45905;SDS011;31619;49.008;12.106;2022-10-22T07:52:41;5.03;;;4.63;;
45905;SDS011;31619;49.008;12.106;2022-10-22T07:55:06;5.22;;;4.72;;
45905;SDS011;31619;49.008;12.106;2022-10-22T07:57:32;5.43;;;4.50;;
45905;SDS011;31619;49.008;12.106;2022-10-22T07:59:59;6.80;;;5.53;;
45905;SDS011;31619;49.008;12.106;2022-10-22T08:02:24;5.22;;;4.63;;
45905;SDS011;31619;49.008;12.106;2022-10-22T08:04:50;5.07;;;4.68;;
45905;SDS011;31619;49.008;12.106;2022-10-22T08:07:21;5.65;;;5.20;;
45905;SDS011;31619;49.008;12.106;2022-10-22T08:09:47;5.32;;;4.80;;
45905;SDS011;31619;49.008;12.106;2022-10-22T08:12:13;7.47;;;5.45;;
45905;SDS011;31619;49.008;12.106;2022-10-22T08:14:39;6.13;;;5.63;;
45905;SDS011;31619;49.008;12.106;2022-10-22T08:17:05;6.15;;;5.55;;
45905;SDS011;31619;49.008;12.106;2022-10-22T08:19:31;6.18;;;4.80;;
45905;SDS011;31619;49.008;12.106;2022-10-22T08:21:57;6.57;;;4.82;;
45905;SDS011;31619;49.008;12.106;2022-10-22T08:24:23;4.68;;;4.38;;
45905;SDS011;31619;49.008;12.106;2022-10-22T08:26:51;5.00;;;4.50;;
45905;SDS011;31619;49.008;12.106;2022-10-22T08:29:18;4.78;;;4.38;;
45905;SDS011;31619;49.008;12.106;2022-10-22T08:31:46;4.82;;;4.38;;
45905;SDS011;31619;49.008;12.106;2022-10-22T08:37:30;4.57;;;3.58;;
45905;SDS011;31619;49.008;12.106;2022-10-22T08:49:29;3.55;;;3.10;;
45905;SDS011;31619;49.008;12.106;2022-10-22T08:51:59;3.95;;;3.50;;
45905;SDS011;31619;49.008;12.106;2022-10-22T08:57:14;3.35;;;3.15;;
45905;SDS011;31619;49.008;12.106;2022-10-22T09:06:11;2.65;;;2.30;;
45905;SDS011;31619;49.008;12.106;2022-10-22T09:08:42;2.60;;;2.40;;
45905;SDS011;31619;49.008;12.106;2022-10-22T09:13:54;2.17;;;2.00;;
45905;SDS011;31619;49.008;12.106;2022-10-22T09:18:59;2.70;;;1.90;;
45905;SDS011;31619;49.008;12.106;2022-10-22T09:24:47;2.60;;;2.50;;
45905;SDS011;31619;49.008;12.106;2022-10-22T09:27:17;3.90;;;2.50;;
45905;SDS011;31619;49.008;12.106;2022-10-22T09:29:48;2.47;;;2.38;;
45905;SDS011;31619;49.008;12.106;2022-10-22T09:32:17;2.45;;;2.25;;
45905;SDS011;31619;49.008;12.106;2022-10-22T09:34:43;2.38;;;2.17;;
45905;SDS011;31619;49.008;12.106;2022-10-22T09:37:10;1.83;;;1.73;;
45905;SDS011;31619;49.008;12.106;2022-10-22T09:39:37;2.40;;;2.30;;
45905;SDS011;31619;49.008;12.106;2022-10-22T09:42:15;4.97;;;2.08;;
45905;SDS011;31619;49.008;12.106;2022-10-22T09:44:43;2.40;;;2.30;;
45905;SDS011;31619;49.008;12.106;2022-10-22T09:56:13;2.20;;;2.10;;
45905;SDS011;31619;49.008;12.106;2022-10-22T09:58:53;1.80;;;1.73;;
45905;SDS011;31619;49.008;12.106;2022-10-22T10:01:24;3.05;;;1.67;;
45905;SDS011;31619;49.008;12.106;2022-10-22T10:03:53;1.95;;;1.50;;
45905;SDS011;31619;49.008;12.106;2022-10-22T10:06:26;1.75;;;1.75;;
45905;SDS011;31619;49.008;12.106;2022-10-22T10:08:56;1.48;;;1.20;;
45905;SDS011;31619;49.008;12.106;2022-10-22T10:11:35;2.55;;;1.60;;
45905;SDS011;31619;49.008;12.106;2022-10-22T10:19:36;2.28;;;1.75;;
45905;SDS011;31619;49.008;12.106;2022-10-22T10:25:40;3.20;;;1.33;;
45905;SDS011;31619;49.008;12.106;2022-10-22T10:28:45;1.35;;;1.25;;
45905;SDS011;31619;49.008;12.106;2022-10-22T10:36:51;1.65;;;1.55;;
45905;SDS011;31619;49.008;12.106;2022-10-22T10:40:41;2.47;;;1.70;;
45905;SDS011;31619;49.008;12.106;2022-10-22T10:45:27;1.75;;;1.65;;
45905;SDS011;31619;49.008;12.106;2022-10-22T11:04:02;1.20;;;1.10;;
45905;SDS011;31619;49.008;12.106;2022-10-22T11:06:32;2.03;;;1.02;;
45905;SDS011;31619;49.008;12.106;2022-10-22T11:09:02;1.38;;;1.10;;
45905;SDS011;31619;49.008;12.106;2022-10-22T11:11:38;0.90;;;0.90;;
45905;SDS011;31619;49.008;12.106;2022-10-22T11:14:21;0.90;;;0.90;;
45905;SDS011;31619;49.008;12.106;2022-10-22T11:16:58;2.90;;;1.15;;
45905;SDS011;31619;49.008;12.106;2022-10-22T11:19:37;1.45;;;0.88;;
45905;SDS011;31619;49.008;12.106;2022-10-22T11:22:20;2.30;;;1.00;;
45905;SDS011;31619;49.008;12.106;2022-10-22T11:25:00;1.02;;;0.98;;
45905;SDS011;31619;49.008;12.106;2022-10-22T11:30:35;1.30;;;1.20;;
45905;SDS011;31619;49.008;12.106;2022-10-22T11:33:05;1.05;;;1.05;;
45905;SDS011;31619;49.008;12.106;2022-10-22T11:35:39;1.92;;;0.75;;
45905;SDS011;31619;49.008;12.106;2022-10-22T11:38:07;0.80;;;0.80;;
45905;SDS011;31619;49.008;12.106;2022-10-22T11:46:44;5.75;;;0.93;;
45905;SDS011;31619;49.008;12.106;2022-10-22T11:49:18;0.57;;;0.57;;
45905;SDS011;31619;49.008;12.106;2022-10-22T11:51:48;4.13;;;0.90;;
45905;SDS011;31619;49.008;12.106;2022-10-22T11:59:41;2.22;;;0.80;;
45905;SDS011;31619;49.008;12.106;2022-10-22T12:02:29;3.00;;;0.95;;
45905;SDS011;31619;49.008;12.106;2022-10-22T12:07:53;1.10;;;0.77;;
45905;SDS011;31619;49.008;12.106;2022-10-22T12:10:21;1.48;;;0.60;;
45905;SDS011;31619;49.008;12.106;2022-10-22T12:12:54;0.60;;;0.60;;
45905;SDS011;31619;49.008;12.106;2022-10-22T12:15:24;1.00;;;0.80;;
45905;SDS011;31619;49.008;12.106;2022-10-22T12:18:01;0.68;;;0.50;;
45905;SDS011;31619;49.008;12.106;2022-10-22T12:20:29;0.70;;;0.70;;
45905;SDS011;31619;49.008;12.106;2022-10-22T12:22:56;0.82;;;0.82;;
45905;SDS011;31619;49.008;12.106;2022-10-22T12:25:24;2.03;;;0.98;;
45905;SDS011;31619;49.008;12.106;2022-10-22T12:27:54;1.15;;;0.80;;
45905;SDS011;31619;49.008;12.106;2022-10-22T12:30:23;1.13;;;0.80;;
45905;SDS011;31619;49.008;12.106;2022-10-22T12:32:51;1.23;;;1.10;;
45905;SDS011;31619;49.008;12.106;2022-10-22T12:35:20;2.47;;;0.90;;
45905;SDS011;31619;49.008;12.106;2022-10-22T12:37:49;1.45;;;1.00;;
45905;SDS011;31619;49.008;12.106;2022-10-22T12:40:35;0.93;;;0.70;;
45905;SDS011;31619;49.008;12.106;2022-10-22T12:43:04;1.10;;;1.10;;
45905;SDS011;31619;49.008;12.106;2022-10-22T12:45:35;1.58;;;1.40;;
45905;SDS011;31619;49.008;12.106;2022-10-22T12:48:03;1.13;;;1.00;;
45905;SDS011;31619;49.008;12.106;2022-10-22T12:50:41;2.38;;;0.80;;
45905;SDS011;31619;49.008;12.106;2022-10-22T12:53:19;1.05;;;0.60;;
45905;SDS011;31619;49.008;12.106;2022-10-22T12:55:49;0.95;;;0.80;;
45905;SDS011;31619;49.008;12.106;2022-10-22T12:58:21;0.82;;;0.70;;
45905;SDS011;31619;49.008;12.106;2022-10-22T13:00:54;1.42;;;0.90;;
45905;SDS011;31619;49.008;12.106;2022-10-22T13:11:39;1.95;;;1.10;;
45905;SDS011;31619;49.008;12.106;2022-10-22T13:14:39;3.30;;;0.90;;
45905;SDS011;31619;49.008;12.106;2022-10-22T13:22:02;2.05;;;1.17;;
45905;SDS011;31619;49.008;12.106;2022-10-22T13:24:28;1.45;;;0.80;;
45905;SDS011;31619;49.008;12.106;2022-10-22T13:26:55;1.55;;;1.05;;
45905;SDS011;31619;49.008;12.106;2022-10-22T13:29:21;0.73;;;0.73;;
45905;SDS011;31619;49.008;12.106;2022-10-22T13:31:48;2.28;;;1.00;;
45905;SDS011;31619;49.008;12.106;2022-10-22T13:34:17;1.08;;;1.05;;
45905;SDS011;31619;49.008;12.106;2022-10-22T13:36:48;2.17;;;0.90;;
45905;SDS011;31619;49.008;12.106;2022-10-22T13:39:21;2.03;;;1.00;;
45905;SDS011;31619;49.008;12.106;2022-10-22T13:41:48;0.77;;;0.77;;
45905;SDS011;31619;49.008;12.106;2022-10-22T13:44:15;0.73;;;0.68;;
45905;SDS011;31619;49.008;12.106;2022-10-22T13:46:41;0.98;;;0.77;;
45905;SDS011;31619;49.008;12.106;2022-10-22T13:49:17;1.08;;;1.00;;
45905;SDS011;31619;49.008;12.106;2022-10-22T13:51:46;0.68;;;0.68;;
45905;SDS011;31619;49.008;12.106;2022-10-22T13:54:15;1.80;;;1.00;;
45905;SDS011;31619;49.008;12.106;2022-10-22T13:56:43;1.13;;;0.80;;
45905;SDS011;31619;49.008;12.106;2022-10-22T13:59:09;2.72;;;0.93;;
45905;SDS011;31619;49.008;12.106;2022-10-22T14:01:35;0.95;;;0.95;;
45905;SDS011;31619;49.008;12.106;2022-10-22T14:04:02;2.58;;;0.90;;
45905;SDS011;31619;49.008;12.106;2022-10-22T14:06:31;0.63;;;0.55;;
45905;SDS011;31619;49.008;12.106;2022-10-22T14:09:01;1.13;;;1.02;;
45905;SDS011;31619;49.008;12.106;2022-10-22T14:11:28;1.08;;;0.98;;
45905;SDS011;31619;49.008;12.106;2022-10-22T14:13:59;1.65;;;0.90;;
45905;SDS011;31619;49.008;12.106;2022-10-22T14:16:25;0.68;;;0.63;;
45905;SDS011;31619;49.008;12.106;2022-10-22T14:18:52;0.70;;;0.70;;
45905;SDS011;31619;49.008;12.106;2022-10-22T14:21:19;0.70;;;0.70;;
45905;SDS011;31619;49.008;12.106;2022-10-22T14:23:46;0.80;;;0.80;;
45905;SDS011;31619;49.008;12.106;2022-10-22T14:26:25;1.67;;;0.95;;
45905;SDS011;31619;49.008;12.106;2022-10-22T14:28:55;1.48;;;0.63;;
45905;SDS011;31619;49.008;12.106;2022-10-22T14:31:21;1.30;;;0.90;;
45905;SDS011;31619;49.008;12.106;2022-10-22T14:33:47;1.55;;;1.10;;
45905;SDS011;31619;49.008;12.106;2022-10-22T14:36:14;1.40;;;0.75;;
45905;SDS011;31619;49.008;12.106;2022-10-22T14:38:41;1.08;;;0.98;;
45905;SDS011;31619;49.008;12.106;2022-10-22T14:41:19;3.25;;;1.02;;
45905;SDS011;31619;49.008;12.106;2022-10-22T14:43:46;1.30;;;0.95;;
45905;SDS011;31619;49.008;12.106;2022-10-22T14:46:13;1.42;;;1.02;;
45905;SDS011;31619;49.008;12.106;2022-10-22T14:48:39;2.15;;;1.15;;
45905;SDS011;31619;49.008;12.106;2022-10-22T14:51:05;2.10;;;1.00;;
45905;SDS011;31619;49.008;12.106;2022-10-22T14:53:31;1.23;;;1.15;;
45905;SDS011;31619;49.008;12.106;2022-10-22T14:55:57;0.80;;;0.70;;
45905;SDS011;31619;49.008;12.106;2022-10-22T14:58:24;1.38;;;0.75;;
45905;SDS011;31619;49.008;12.106;2022-10-22T15:00:50;0.70;;;0.70;;
45905;SDS011;31619;49.008;12.106;2022-10-22T15:03:15;1.20;;;0.80;;
45905;SDS011;31619;49.008;12.106;2022-10-22T15:05:41;1.98;;;1.20;;
45905;SDS011;31619;49.008;12.106;2022-10-22T15:08:08;2.70;;;1.20;;
45905;SDS011;31619;49.008;12.106;2022-10-22T15:10:34;1.33;;;0.65;;
45905;SDS011;31619;49.008;12.106;2022-10-22T15:13:00;2.72;;;0.90;;
45905;SDS011;31619;49.008;12.106;2022-10-22T15:15:25;0.63;;;0.63;;
45905;SDS011;31619;49.008;12.106;2022-10-22T15:17:51;0.75;;;0.75;;
45905;SDS011;31619;49.008;12.106;2022-10-22T15:20:17;0.50;;;0.50;;
45905;SDS011;31619;49.008;12.106;2022-10-22T15:22:42;3.15;;;0.80;;
45905;SDS011;31619;49.008;12.106;2022-10-22T15:25:09;0.50;;;0.50;;
45905;SDS011;31619;49.008;12.106;2022-10-22T15:27:37;2.05;;;0.68;;
45905;SDS011;31619;49.008;12.106;2022-10-22T15:30:04;0.80;;;0.80;;
45905;SDS011;31619;49.008;12.106;2022-10-22T15:32:30;1.52;;;0.82;;
45905;SDS011;31619;49.008;12.106;2022-10-22T15:34:57;1.65;;;0.88;;
45905;SDS011;31619;49.008;12.106;2022-10-22T15:37:23;0.82;;;0.82;;
45905;SDS011;31619;49.008;12.106;2022-10-22T15:39:49;1.02;;;0.85;;
45905;SDS011;31619;49.008;12.106;2022-10-22T15:42:14;0.90;;;0.90;;
45905;SDS011;31619;49.008;12.106;2022-10-22T15:44:40;1.20;;;1.10;;
45905;SDS011;31619;49.008;12.106;2022-10-22T15:47:06;2.20;;;1.23;;
45905;SDS011;31619;49.008;12.106;2022-10-22T15:49:33;1.30;;;1.20;;
45905;SDS011;31619;49.008;12.106;2022-10-22T15:52:00;5.10;;;1.30;;
45905;SDS011;31619;49.008;12.106;2022-10-22T15:54:27;1.45;;;1.10;;
45905;SDS011;31619;49.008;12.106;2022-10-22T15:56:54;1.17;;;1.17;;
45905;SDS011;31619;49.008;12.106;2022-10-22T15:59:21;1.40;;;1.30;;
45905;SDS011;31619;49.008;12.106;2022-10-22T16:01:47;1.48;;;1.42;;
45905;SDS011;31619;49.008;12.106;2022-10-22T16:04:13;1.92;;;1.50;;
45905;SDS011;31619;49.008;12.106;2022-10-22T16:06:43;1.45;;;1.40;;
45905;SDS011;31619;49.008;12.106;2022-10-22T16:09:12;1.92;;;1.70;;
45905;SDS011;31619;49.008;12.106;2022-10-22T16:11:42;2.10;;;2.00;;
45905;SDS011;31619;49.008;12.106;2022-10-22T16:14:12;1.45;;;1.35;;
45905;SDS011;31619;49.008;12.106;2022-10-22T16:16:43;1.30;;;1.30;;
45905;SDS011;31619;49.008;12.106;2022-10-22T16:19:10;1.45;;;1.42;;
45905;SDS011;31619;49.008;12.106;2022-10-22T16:21:37;1.73;;;1.20;;
45905;SDS011;31619;49.008;12.106;2022-10-22T16:24:04;1.70;;;1.40;;
45905;SDS011;31619;49.008;12.106;2022-10-22T16:26:30;1.60;;;1.50;;
45905;SDS011;31619;49.008;12.106;2022-10-22T16:28:56;1.42;;;1.42;;
45905;SDS011;31619;49.008;12.106;2022-10-22T16:31:22;1.88;;;1.50;;
45905;SDS011;31619;49.008;12.106;2022-10-22T16:33:48;1.63;;;1.52;;
45905;SDS011;31619;49.008;12.106;2022-10-22T16:36:15;2.05;;;1.70;;
45905;SDS011;31619;49.008;12.106;2022-10-22T16:38:46;3.65;;;1.70;;
45905;SDS011;31619;49.008;12.106;2022-10-22T16:41:16;3.05;;;1.90;;
45905;SDS011;31619;49.008;12.106;2022-10-22T16:43:47;2.00;;;1.90;;